Time;durP1;ratioP1;P1;durP2;ratioP2;P2;SDS_P1;SDS_P2;PMS_P1;PMS_P2;Temp;Humidity;BMP_temperature;BMP_pressure;BME280_temperature;BME280_humidity;BME280_pressure;Samples;Min_cycle;Max_cycle;Signal;HPM_P1;HPM_P2
2022/08/22 00:00:13;;;;;;;3.50;2.17;;;-23.00;99.90;;;;;;5078374;28;20192;-71
2022/08/22 00:02:54;;;;;;;6.90;3.90;;;-18.90;99.90;;;;;;5078484;28;20207;-67
2022/08/22 00:05:47;;;;;;;5.57;3.23;;;-21.70;99.90;;;;;;5078476;28;20472;-65
2022/08/22 00:08:39;;;;;;;11.33;4.53;;;-20.00;99.90;;;;;;5077611;28;20186;-67
2022/08/22 00:11:28;;;;;;;5.93;3.43;;;-16.80;99.90;;;;;;5078096;28;20186;-66
2022/08/22 00:14:00;;;;;;;2.83;2.37;;;-21.00;99.90;;;;;;5078713;28;20795;-65
2022/08/22 00:16:50;;;;;;;5.47;2.63;;;-16.30;99.90;;;;;;5078338;28;20505;-66
2022/08/22 00:19:36;;;;;;;8.33;2.90;;;-21.90;99.90;;;;;;5079261;28;20180;-66
2022/08/22 00:22:41;;;;;;;8.00;3.27;;;-22.90;99.90;;;;;;5076783;28;20235;-67
2022/08/22 00:25:35;;;;;;;6.97;2.80;;;-24.40;99.90;;;;;;5075446;28;20493;-65
2022/08/22 00:28:20;;;;;;;4.57;3.00;;;-22.70;99.90;;;;;;5078617;28;20191;-66
2022/08/22 00:30:56;;;;;;;5.27;3.07;;;-23.10;99.90;;;;;;5078445;28;20236;-66
2022/08/22 00:33:53;;;;;;;6.07;4.03;;;-22.80;99.90;;;;;;5077864;28;20175;-66
2022/08/22 00:36:36;;;;;;;3.10;2.80;;;-20.90;99.90;;;;;;5078048;28;20563;-66
2022/08/22 00:39:23;;;;;;;6.60;3.07;;;-20.60;99.90;;;;;;5076818;28;20175;-68
2022/08/22 00:42:05;;;;;;;6.07;3.63;;;-18.70;99.90;;;;;;5078225;28;20203;-65
2022/08/22 00:44:45;;;;;;;11.20;3.50;;;-20.60;99.90;;;;;;5078401;28;20636;-66
2022/08/22 00:47:31;;;;;;;6.60;3.03;;;-23.00;99.90;;;;;;5077420;28;20168;-66
2022/08/22 00:50:18;;;;;;;4.37;2.87;;;-22.00;99.90;;;;;;5082979;28;20195;-69
2022/08/22 00:53:11;;;;;;;4.07;2.70;;;-23.70;99.90;;;;;;5080171;28;20258;-65
2022/08/22 00:55:42;;;;;;;6.80;3.17;;;-21.30;99.90;;;;;;5077025;28;20183;-65
2022/08/22 00:58:33;;;;;;;4.47;3.47;;;-19.50;99.90;;;;;;5077144;28;20270;-69
2022/08/22 01:01:11;;;;;;;9.70;3.87;;;-18.80;99.90;;;;;;5076962;28;20192;-66
2022/08/22 01:03:43;;;;;;;4.87;3.87;;;-19.40;99.90;;;;;;5078122;28;20179;-66
2022/08/22 01:06:46;;;;;;;6.53;2.80;;;-16.90;99.90;;;;;;5077177;28;20175;-66
2022/08/22 01:09:41;;;;;;;7.77;4.47;;;-17.90;99.90;;;;;;5077624;28;20224;-67
2022/08/22 01:12:31;;;;;;;4.23;3.83;;;-18.10;99.90;;;;;;5081535;28;20269;-65
2022/08/22 01:15:03;;;;;;;5.93;3.87;;;-21.00;99.90;;;;;;5077589;28;20171;-69
2022/08/22 01:17:59;;;;;;;4.70;3.30;;;-23.70;99.90;;;;;;5077020;28;20262;-67
2022/08/22 01:20:28;;;;;;;10.47;4.87;;;-19.90;99.90;;;;;;5078034;28;20261;-70
2022/08/22 01:23:31;;;;;;;6.33;3.50;;;-20.20;99.90;;;;;;5074767;28;20207;-66
2022/08/22 01:26:20;;;;;;;9.40;4.03;;;-20.70;99.90;;;;;;5077285;28;20449;-66
2022/08/22 01:29:04;;;;;;;5.53;3.63;;;-21.70;99.90;;;;;;5077103;28;20205;-67
2022/08/22 01:32:06;;;;;;;6.63;3.03;;;-20.40;99.90;;;;;;5077332;28;20540;-67
2022/08/22 01:34:35;;;;;;;3.93;3.50;;;-22.40;99.90;;;;;;5076574;28;20186;-67
2022/08/22 01:37:36;;;;;;;4.73;2.60;;;-21.70;99.90;;;;;;5076404;28;20312;-68
2022/08/22 01:40:51;;;;;;;5.70;2.73;;;-20.50;99.90;;;;;;5075211;28;20209;-68
2022/08/22 01:43:38;;;;;;;7.90;3.27;;;-21.70;99.90;;;;;;5034975;28;20221;-67
2022/08/22 01:46:26;;;;;;;9.70;3.30;;;-24.60;99.90;;;;;;5076918;28;20183;-66
2022/08/22 01:49:13;;;;;;;7.83;4.33;;;-25.30;99.90;;;;;;5074618;28;20618;-67
2022/08/22 01:51:49;;;;;;;4.97;3.07;;;-22.00;99.90;;;;;;5082141;28;20186;-68
2022/08/22 01:54:42;;;;;;;5.20;2.80;;;-18.90;99.90;;;;;;5079378;28;20197;-68
2022/08/22 01:57:10;;;;;;;9.77;3.83;;;-19.00;99.90;;;;;;5076256;28;20201;-67
2022/08/22 01:59:43;;;;;;;11.70;4.27;;;-17.40;99.90;;;;;;5075717;28;20257;-69
2022/08/22 02:02:28;;;;;;;4.27;3.37;;;-18.70;99.90;;;;;;5075882;28;20233;-68
2022/08/22 02:05:00;;;;;;;5.23;3.17;;;-17.90;99.90;;;;;;5075950;28;20261;-68
2022/08/22 02:07:37;;;;;;;6.87;3.07;;;-18.00;99.90;;;;;;5076535;28;20167;-69
2022/08/22 02:10:14;;;;;;;4.83;2.97;;;-16.50;99.90;;;;;;5076149;28;20224;-67
2022/08/22 02:12:43;;;;;;;6.03;2.93;;;-19.40;99.90;;;;;;5075587;28;20755;-67
2022/08/22 02:15:34;;;;;;;6.17;3.23;;;-17.20;99.90;;;;;;5075528;28;20570;-68
2022/08/22 02:18:07;;;;;;;4.03;2.97;;;-18.00;99.90;;;;;;5076100;28;20190;-67
2022/08/22 02:21:04;;;;;;;10.23;4.00;;;-18.40;99.90;;;;;;5076192;28;20524;-67
2022/08/22 02:23:42;;;;;;;7.33;4.17;;;-18.70;99.90;;;;;;5076795;28;20404;-67
2022/08/22 02:26:16;;;;;;;8.57;4.47;;;-18.90;99.90;;;;;;5076474;28;20210;-66
2022/08/22 02:29:10;;;;;;;3.50;2.80;;;-19.30;99.90;;;;;;5076509;28;20171;-66
2022/08/22 02:31:48;;;;;;;5.10;3.73;;;-21.80;99.90;;;;;;5075479;28;20184;-68
2022/08/22 02:34:38;;;;;;;5.40;3.10;;;-26.60;99.90;;;;;;5081086;28;20182;-67
2022/08/22 02:37:09;;;;;;;6.20;3.07;;;-25.50;99.90;;;;;;5076456;28;20244;-67
2022/08/22 02:39:43;;;;;;;4.87;3.60;;;-26.40;99.90;;;;;;5078730;28;20598;-69
2022/08/22 02:42:28;;;;;;;5.17;3.47;;;-25.20;99.90;;;;;;5081495;28;20641;-65
2022/08/22 02:45:15;;;;;;;6.60;4.07;;;-26.70;99.90;;;;;;5075881;28;20257;-66
2022/08/22 02:48:12;;;;;;;8.60;3.50;;;-23.40;99.90;;;;;;5075413;28;20205;-67
2022/08/22 02:50:53;;;;;;;5.03;3.80;;;-21.30;99.90;;;;;;5073003;28;20184;-68
2022/08/22 02:53:37;;;;;;;3.00;2.73;;;-21.00;99.90;;;;;;5075881;28;20186;-66
2022/08/22 02:56:06;;;;;;;7.60;4.20;;;-24.00;99.90;;;;;;5076221;28;20255;-66
2022/08/22 02:58:49;;;;;;;3.63;3.37;;;-23.30;99.90;;;;;;5075611;28;20187;-66
2022/08/22 03:01:24;;;;;;;8.63;3.37;;;-24.90;99.90;;;;;;5076104;28;20206;-66
2022/08/22 03:04:11;;;;;;;9.17;4.50;;;-25.90;99.90;;;;;;5075862;28;20189;-65
2022/08/22 03:06:42;;;;;;;6.90;3.73;;;-24.70;99.90;;;;;;5075305;28;20481;-65
2022/08/22 03:09:14;;;;;;;8.37;3.77;;;-26.00;99.90;;;;;;5075636;28;20610;-65
2022/08/22 03:11:45;;;;;;;3.73;3.40;;;-24.90;99.90;;;;;;5081303;28;20246;-67
2022/08/22 03:14:43;;;;;;;9.40;4.00;;;-27.30;99.90;;;;;;5076087;28;20179;-66
2022/08/22 03:17:22;;;;;;;8.50;3.80;;;-24.50;99.90;;;;;;5066196;28;20598;-66
2022/08/22 03:19:54;;;;;;;5.27;3.20;;;-25.10;99.90;;;;;;5076278;28;20187;-68
2022/08/22 03:22:26;;;;;;;5.40;3.60;;;-25.90;99.90;;;;;;5075473;28;20207;-71
2022/08/22 03:25:06;;;;;;;8.47;4.40;;;-26.10;99.90;;;;;;5078268;28;20179;-66
2022/08/22 03:27:38;;;;;;;5.90;4.10;;;-23.00;99.90;;;;;;5078723;28;20186;-66
2022/08/22 03:30:20;;;;;;;5.30;2.93;;;-23.10;99.90;;;;;;5078456;28;20179;-66
2022/08/22 03:33:12;;;;;;;6.23;3.30;;;-26.40;99.90;;;;;;5082343;28;20539;-76
2022/08/22 03:35:41;;;;;;;5.07;3.53;;;-25.20;99.90;;;;;;5085822;28;20190;-67
2022/08/22 03:38:21;;;;;;;5.93;3.30;;;-21.90;99.90;;;;;;5086024;28;20179;-70
2022/08/22 03:44:12;;;;;;;4.20;3.77;;;-25.60;99.90;;;;;;5085856;28;20206;-67
2022/08/22 03:47:18;;;;;;;4.23;3.57;;;-24.90;99.90;;;;;;5078241;28;20266;-67
2022/08/22 03:50:02;;;;;;;6.83;4.30;;;-20.90;99.90;;;;;;5077386;28;20210;-70
2022/08/22 03:53:09;;;;;;;6.23;3.70;;;-22.70;99.90;;;;;;5078204;28;20893;-69
2022/08/22 03:56:15;;;;;;;8.30;3.63;;;-19.90;99.90;;;;;;5077775;28;20175;-69
2022/08/22 03:59:18;;;;;;;3.73;3.30;;;-20.60;99.90;;;;;;5078300;28;20207;-70
2022/08/22 04:02:05;;;;;;;5.43;4.13;;;-23.60;99.90;;;;;;5077850;28;20206;-71
2022/08/22 04:04:59;;;;;;;7.17;4.30;;;-24.60;99.90;;;;;;5078018;28;20595;-72
2022/08/22 04:08:06;;;;;;;5.30;3.67;;;-22.80;99.90;;;;;;5076283;28;20193;-68
2022/08/22 04:10:48;;;;;;;4.80;3.50;;;-22.10;99.90;;;;;;5078221;28;20201;-70
2022/08/22 04:13:34;;;;;;;2.93;2.63;;;-25.50;99.90;;;;;;5082527;28;20218;-73
2022/08/22 04:16:37;;;;;;;7.37;3.93;;;-26.20;99.90;;;;;;5093048;28;20631;-69
2022/08/22 04:19:33;;;;;;;5.83;3.93;;;-22.80;99.90;;;;;;5078132;28;20187;-68
2022/08/22 04:22:06;;;;;;;7.63;4.77;;;-20.20;99.90;;;;;;5076106;28;20756;-68
2022/08/22 04:24:58;;;;;;;10.77;4.40;;;-20.50;99.90;;;;;;5078696;28;20186;-70
2022/08/22 04:27:39;;;;;;;15.50;5.20;;;-21.10;99.90;;;;;;5077792;28;20181;-68
2022/08/22 04:30:24;;;;;;;9.60;4.03;;;-21.90;99.90;;;;;;5077729;28;20267;-72
2022/08/22 04:33:05;;;;;;;7.63;4.13;;;-20.30;99.90;;;;;;5077839;28;20183;-74
2022/08/22 04:35:39;;;;;;;4.00;3.60;;;-22.30;99.90;;;;;;5076615;28;20602;-70
2022/08/22 04:38:28;;;;;;;7.13;3.33;;;-19.80;99.90;;;;;;5077070;28;20210;-71
2022/08/22 04:40:59;;;;;;;7.33;3.50;;;-23.90;99.90;;;;;;5082033;28;20191;-72
2022/08/22 04:43:25;;;;;;;7.23;4.27;;;-20.00;99.90;;;;;;5080539;28;20302;-71
2022/08/22 04:46:03;;;;;;;3.70;3.33;;;-20.30;99.90;;;;;;5077915;28;20290;-73
2022/08/22 04:48:55;;;;;;;7.73;3.60;;;-22.50;99.90;;;;;;5080583;28;20337;-68
2022/08/22 04:52:00;;;;;;;6.23;4.10;;;-22.20;99.90;;;;;;5071829;28;20191;-70
2022/08/22 04:54:59;;;;;;;5.77;3.73;;;-22.30;99.90;;;;;;5044087;28;20527;-69
2022/08/22 04:58:16;;;;;;;9.00;3.73;;;-21.70;99.90;;;;;;5077265;28;20174;-69
2022/08/22 05:00:53;;;;;;;7.93;3.67;;;-23.60;99.90;;;;;;5087325;28;20217;-69
2022/08/22 05:03:23;;;;;;;9.97;5.20;;;-21.30;99.90;;;;;;5077412;28;20207;-70
2022/08/22 05:05:52;;;;;;;5.07;3.40;;;-19.90;99.90;;;;;;5077842;28;20183;-75
2022/08/22 05:08:23;;;;;;;10.13;4.17;;;-18.80;99.90;;;;;;5078098;28;20179;-71
2022/08/22 05:10:51;;;;;;;6.27;3.90;;;-20.20;99.90;;;;;;5083523;28;20541;-68
2022/08/22 05:13:21;;;;;;;6.30;4.23;;;-19.70;99.90;;;;;;5077125;28;20175;-69
2022/08/22 05:15:57;;;;;;;8.90;4.60;;;-20.70;99.90;;;;;;5077119;28;20194;-71
2022/08/22 05:18:27;;;;;;;4.30;3.90;;;-20.30;99.90;;;;;;5076773;28;20175;-70
2022/08/22 05:20:55;;;;;;;5.07;4.47;;;-20.70;99.90;;;;;;5076538;28;20546;-72
2022/08/22 05:23:28;;;;;;;13.93;4.23;;;-19.90;99.90;;;;;;5076638;28;20694;-69
2022/08/22 05:25:59;;;;;;;5.90;4.97;;;-20.90;99.90;;;;;;5076313;28;20262;-72
2022/08/22 05:28:48;;;;;;;6.33;4.73;;;-19.90;99.90;;;;;;5077181;28;20448;-72
2022/08/22 05:31:29;;;;;;;8.10;3.43;;;-20.90;99.90;;;;;;5076801;28;20190;-73
2022/08/22 05:34:03;;;;;;;5.93;3.80;;;-20.80;99.90;;;;;;5076607;28;20229;-68
2022/08/22 05:36:39;;;;;;;7.47;3.47;;;-19.80;99.90;;;;;;5076704;28;20589;-67
2022/08/22 05:39:17;;;;;;;5.70;3.93;;;-21.50;99.90;;;;;;5076634;28;20526;-68
2022/08/22 05:41:44;;;;;;;7.87;3.37;;;-21.90;99.90;;;;;;5076005;28;20203;-68
2022/08/22 05:44:22;;;;;;;4.00;3.20;;;-21.60;99.90;;;;;;5076728;28;20190;-72
2022/08/22 05:47:14;;;;;;;8.63;4.60;;;-26.70;99.90;;;;;;5076751;28;20179;-67
2022/08/22 05:50:05;;;;;;;10.07;3.83;;;-26.30;99.90;;;;;;5076027;28;20498;-69
2022/08/22 05:52:56;;;;;;;9.30;4.43;;;-25.20;99.90;;;;;;5075889;28;20289;-64
2022/08/22 05:55:34;;;;;;;15.30;4.50;;;-27.20;99.90;;;;;;5077388;28;20284;-67
2022/08/22 05:58:37;;;;;;;7.30;4.83;;;-25.90;99.90;;;;;;5088343;28;20185;-69
2022/08/22 06:01:32;;;;;;;8.30;4.03;;;-26.00;99.90;;;;;;5065637;28;20206;-65
2022/08/22 06:03:58;;;;;;;5.00;3.67;;;-25.80;99.90;;;;;;5048312;28;20313;-64
2022/08/22 06:06:26;;;;;;;7.50;3.80;;;-24.90;99.90;;;;;;5076244;28;20183;-67
2022/08/22 06:09:10;;;;;;;8.97;3.90;;;-24.00;99.90;;;;;;5076725;28;20195;-66
2022/08/22 06:11:48;;;;;;;6.00;4.07;;;-19.30;99.90;;;;;;5077060;28;20473;-66
2022/08/22 06:14:29;;;;;;;11.70;4.07;;;-22.10;99.90;;;;;;5090885;28;20174;-64
2022/08/22 06:17:14;;;;;;;9.63;4.70;;;-22.40;99.90;;;;;;5073759;28;20264;-67
2022/08/22 06:19:48;;;;;;;9.17;4.40;;;-26.10;99.90;;;;;;5073501;28;20575;-67
2022/08/22 06:22:24;;;;;;;4.80;3.70;;;-21.40;99.90;;;;;;5082070;28;20198;-67
2022/08/22 06:24:53;;;;;;;6.73;3.87;;;-20.80;99.90;;;;;;5087602;28;20174;-66
2022/08/22 06:27:24;;;;;;;7.50;3.53;;;-20.80;99.90;;;;;;5085231;28;20649;-65
2022/08/22 06:29:57;;;;;;;10.73;4.00;;;-21.90;99.90;;;;;;5084493;28;20186;-66
2022/08/22 06:32:47;;;;;;;9.13;4.07;;;-22.00;99.90;;;;;;5086801;28;20201;-66
2022/08/22 06:38:33;;;;;;;6.80;3.30;;;-18.80;99.90;;;;;;5088123;28;20201;-63
2022/08/22 06:41:05;;;;;;;11.30;3.57;;;-24.20;99.90;;;;;;5081935;28;21796;-64
2022/08/22 06:43:42;;;;;;;12.27;4.93;;;-24.70;99.90;;;;;;5081917;28;20293;-67
2022/08/22 06:46:08;;;;;;;7.10;3.90;;;-24.80;99.90;;;;;;5086764;28;20259;-65
2022/08/22 06:48:35;;;;;;;3.60;2.63;;;-24.70;99.90;;;;;;5086596;28;20609;-65
2022/08/22 06:51:05;;;;;;;12.83;3.60;;;-24.80;99.90;;;;;;5084245;28;20185;-66
2022/08/22 06:53:39;;;;;;;7.20;3.53;;;-22.80;99.90;;;;;;5086562;28;20182;-66
2022/08/22 06:56:06;;;;;;;7.73;3.57;;;-24.60;99.90;;;;;;5083360;28;20177;-68
2022/08/22 06:58:44;;;;;;;7.03;2.97;;;-21.20;99.90;;;;;;5086975;28;20190;-67
2022/08/22 07:01:15;;;;;;;5.03;2.70;;;-22.30;99.90;;;;;;5093507;28;20182;-66
2022/08/22 07:03:48;;;;;;;7.43;3.50;;;-22.90;99.90;;;;;;5086533;28;20679;-64
2022/08/22 07:06:29;;;;;;;3.43;2.60;;;-23.00;99.90;;;;;;5086001;28;20183;-63
2022/08/22 07:08:55;;;;;;;9.03;3.60;;;-22.10;99.90;;;;;;5077787;28;20179;-66
2022/08/22 07:11:26;;;;;;;9.07;3.57;;;-16.50;99.90;;;;;;5080627;28;20174;-63
2022/08/22 07:13:59;;;;;;;8.27;3.17;;;-21.30;99.90;;;;;;5079372;28;20183;-65
2022/08/22 07:16:33;;;;;;;3.87;3.30;;;-22.70;99.90;;;;;;5079284;28;20177;-66
2022/08/22 07:18:59;;;;;;;4.37;3.10;;;-17.70;99.90;;;;;;5079813;28;20186;-66
2022/08/22 07:21:28;;;;;;;4.63;3.27;;;-16.90;99.90;;;;;;5079261;28;20171;-66
2022/08/22 07:23:57;;;;;;;9.80;3.07;;;-19.70;99.90;;;;;;5079369;28;20182;-66
2022/08/22 07:26:26;;;;;;;7.20;3.53;;;-18.30;99.90;;;;;;5078884;28;20179;-65
2022/08/22 07:29:11;;;;;;;7.60;3.70;;;-17.90;99.90;;;;;;5078011;28;20190;-65
2022/08/22 07:31:57;;;;;;;5.73;2.93;;;-22.60;99.90;;;;;;5077039;28;20594;-65
2022/08/22 07:34:41;;;;;;;11.60;3.90;;;-23.30;99.90;;;;;;5078463;28;20557;-64
2022/08/22 07:37:39;;;;;;;5.50;3.00;;;-18.00;99.90;;;;;;5085005;28;20179;-65
2022/08/22 07:40:27;;;;;;;5.23;3.27;;;-15.90;99.90;;;;;;5079252;28;20482;-65
2022/08/22 07:43:16;;;;;;;4.23;3.20;;;-21.70;99.90;;;;;;5077339;28;20242;-64
2022/08/22 07:46:30;;;;;;;6.00;2.70;;;-20.50;99.90;;;;;;5078578;28;20598;-66
2022/08/22 07:49:21;;;;;;;7.30;3.57;;;-13.50;99.90;;;;;;5036585;28;20219;-64
2022/08/22 07:51:54;;;;;;;6.47;3.40;;;-14.10;99.90;;;;;;5078811;28;20183;-63
2022/08/22 07:54:39;;;;;;;7.47;3.37;;;-16.10;99.90;;;;;;5077783;28;20203;-64
2022/08/22 07:57:22;;;;;;;6.50;3.43;;;-18.90;99.90;;;;;;5078932;28;20339;-63
2022/08/22 07:59:52;;;;;;;6.30;3.30;;;-15.10;99.90;;;;;;5078370;28;20190;-64
2022/08/22 08:02:19;;;;;;;6.83;3.13;;;-14.00;99.90;;;;;;5079030;28;20475;-64
2022/08/22 08:04:48;;;;;;;8.33;3.57;;;-14.10;99.90;;;;;;5078837;28;20183;-68
2022/08/22 08:07:16;;;;;;;8.67;4.47;;;-17.30;99.90;;;;;;5078159;28;20504;-63
2022/08/22 08:09:49;;;;;;;9.50;3.33;;;-19.00;99.90;;;;;;5078736;28;20258;-66
2022/08/22 08:12:17;;;;;;;7.27;3.57;;;-19.40;99.90;;;;;;5083738;28;20525;-64
2022/08/22 08:14:48;;;;;;;8.33;3.40;;;-15.60;99.90;;;;;;5078678;28;20183;-63
2022/08/22 08:17:17;;;;;;;14.27;4.20;;;-19.00;99.90;;;;;;5082574;28;20185;-66
2022/08/22 08:19:44;;;;;;;5.20;3.40;;;-19.10;99.90;;;;;;5078840;28;20203;-63
2022/08/22 08:22:21;;;;;;;4.03;3.03;;;-21.10;99.90;;;;;;5077703;28;20195;-64
2022/08/22 08:24:49;;;;;;;3.47;2.87;;;-21.60;99.90;;;;;;5077839;28;20171;-65
2022/08/22 08:30:11;;;;;;;6.30;3.20;;;-25.40;99.90;;;;;;5077984;28;20284;-65
2022/08/22 08:32:40;;;;;;;4.63;2.53;;;-26.90;99.90;;;;;;5084295;28;20179;-63
2022/08/22 08:35:27;;;;;;;5.27;3.43;;;-27.60;99.90;;;;;;5078567;28;20269;-63
2022/08/22 08:38:07;;;;;;;8.33;3.47;;;-24.40;99.90;;;;;;5076870;28;20178;-66
2022/08/22 08:40:33;;;;;;;9.23;3.47;;;-32.40;97.50;;;;;;5082859;28;20179;-64
2022/08/22 08:43:26;;;;;;;5.63;2.57;;;-35.10;97.40;;;;;;5080806;28;20203;-64
2022/08/22 08:46:17;;;;;;;6.50;3.47;;;-39.90;96.30;;;;;;5075656;28;20539;-64
2022/08/22 08:48:54;;;;;;;2.77;2.50;;;-40.00;95.90;;;;;;5077646;28;20206;-65
2022/08/22 08:51:54;;;;;;;3.67;2.27;;;-40.00;94.20;;;;;;5076415;28;20179;-67
2022/08/22 08:54:19;;;;;;;7.30;2.80;;;-40.00;94.30;;;;;;5078087;28;20270;-64
2022/08/22 08:56:56;;;;;;;3.47;2.70;;;-40.00;94.00;;;;;;5076196;28;20254;-64
2022/08/22 08:59:25;;;;;;;10.03;3.23;;;-40.00;93.40;;;;;;5077191;28;20198;-65
2022/08/22 09:02:04;;;;;;;6.90;3.53;;;-40.00;93.10;;;;;;5078586;28;20245;-66
2022/08/22 09:05:01;;;;;;;4.57;2.60;;;-40.00;92.30;;;;;;5076234;28;20167;-66
2022/08/22 09:07:41;;;;;;;5.73;3.43;;;-40.00;90.30;;;;;;5077125;28;20171;-66
2022/08/22 09:10:40;;;;;;;7.07;3.57;;;-40.00;90.80;;;;;;5076797;28;20175;-66
2022/08/22 09:13:25;;;;;;;5.17;2.33;;;-40.00;90.20;;;;;;5082535;28;20187;-64
2022/08/22 09:16:38;;;;;;;7.97;2.30;;;-40.00;89.70;;;;;;5077442;28;21584;-66
2022/08/22 09:19:42;;;;;;;2.50;2.30;;;-40.00;90.20;;;;;;5065775;28;20194;-66
2022/08/22 09:22:27;;;;;;;3.90;2.10;;;-40.00;88.80;;;;;;5075218;28;20207;-65
2022/08/22 09:25:11;;;;;;;7.23;2.47;;;-40.00;88.10;;;;;;5075577;28;20187;-64
2022/08/22 09:28:09;;;;;;;6.00;3.07;;;-40.00;85.70;;;;;;5077210;28;20225;-64
2022/08/22 09:31:00;;;;;;;8.40;2.77;;;-40.00;85.30;;;;;;5077734;28;20515;-64
2022/08/22 09:33:53;;;;;;;5.17;2.80;;;-40.00;83.20;;;;;;5076587;28;20209;-64
2022/08/22 09:36:54;;;;;;;7.77;2.67;;;-40.00;81.10;;;;;;5076904;28;20406;-66
2022/08/22 09:39:33;;;;;;;5.63;2.77;;;-40.00;79.30;;;;;;5080607;28;20190;-65
2022/08/22 09:42:11;;;;;;;6.07;2.40;;;-40.00;79.80;;;;;;5081032;28;20200;-64
2022/08/22 09:44:56;;;;;;;4.70;2.57;;;-40.00;78.40;;;;;;5077045;28;20449;-67
2022/08/22 09:47:37;;;;;;;5.30;2.33;;;-40.00;78.50;;;;;;5077208;28;20188;-65
2022/08/22 09:50:16;;;;;;;8.37;2.30;;;-40.00;79.00;;;;;;5076716;28;20234;-65
2022/08/22 09:53:20;;;;;;;6.77;2.60;;;-40.00;77.60;;;;;;5075346;28;20187;-64
2022/08/22 09:56:06;;;;;;;7.30;2.93;;;-40.00;76.90;;;;;;5076933;28;20179;-65
2022/08/22 09:58:50;;;;;;;7.47;2.40;;;-40.00;78.40;;;;;;5076080;28;20195;-64
2022/08/22 10:01:53;;;;;;;10.10;4.13;;;-40.00;76.50;;;;;;5076395;28;20183;-66
2022/08/22 10:04:43;;;;;;;5.30;2.57;;;-40.00;77.60;;;;;;5076359;28;20194;-65
2022/08/22 10:07:27;;;;;;;4.23;2.07;;;-40.00;75.80;;;;;;5076340;28;20301;-65
2022/08/22 10:10:14;;;;;;;2.90;2.57;;;-40.00;75.20;;;;;;5076117;28;20187;-65
2022/08/22 10:12:46;;;;;;;6.47;2.97;;;-40.00;75.80;;;;;;5076084;28;20183;-67
2022/08/22 10:15:36;;;;;;;8.03;3.63;;;-40.00;74.80;;;;;;5074297;28;20175;-68
2022/08/22 10:18:30;;;;;;;8.70;2.80;;;-40.00;74.60;;;;;;5075770;28;20309;-64
2022/08/22 10:21:28;;;;;;;2.57;1.83;;;-40.00;70.90;;;;;;5076022;28;20666;-64
2022/08/22 10:24:02;;;;;;;4.40;1.80;;;-40.00;73.40;;;;;;5076401;28;20688;-65
2022/08/22 10:26:37;;;;;;;4.17;2.40;;;-40.00;72.60;;;;;;5073680;28;20493;-66
2022/08/22 10:29:51;;;;;;;4.00;1.97;;;-40.00;70.50;;;;;;5076078;28;20206;-64
2022/08/22 10:32:20;;;;;;;4.30;1.60;;;-40.00;70.70;;;;;;5076282;28;20245;-68
2022/08/22 10:34:56;;;;;;;5.80;2.17;;;-40.00;71.00;;;;;;5077551;28;20198;-67
2022/08/22 10:37:31;;;;;;;4.57;2.10;;;-40.00;68.80;;;;;;5080488;28;20249;-65
2022/08/22 10:40:15;;;;;;;4.47;2.17;;;-40.00;67.70;;;;;;5080552;28;20696;-65
2022/08/22 10:42:51;;;;;;;3.00;2.40;;;-40.00;69.90;;;;;;5079898;28;20205;-65
2022/08/22 10:45:19;;;;;;;5.20;1.67;;;-40.00;70.70;;;;;;5080100;28;20183;-65
2022/08/22 10:47:57;;;;;;;2.23;1.63;;;-40.00;70.20;;;;;;5079094;28;20167;-68
2022/08/22 10:50:25;;;;;;;6.57;2.77;;;-40.00;69.50;;;;;;5079328;28;20278;-65
2022/08/22 10:55:46;;;;;;;5.33;2.60;;;-40.00;66.10;;;;;;5082990;28;20221;-66
2022/08/22 10:58:18;;;;;;;3.97;1.83;;;-40.00;64.70;;;;;;5082412;28;20183;-66
2022/08/22 11:00:53;;;;;;;4.00;2.13;;;-40.00;63.30;;;;;;5079961;28;20232;-68
2022/08/22 11:03:37;;;;;;;11.03;3.03;;;-40.00;64.80;;;;;;5079427;28;20205;-70
2022/08/22 11:06:09;;;;;;;3.43;1.93;;;-40.00;63.50;;;;;;5080159;28;20182;-64
2022/08/22 11:09:09;;;;;;;2.73;1.40;;;-40.00;63.60;;;;;;5079870;28;20167;-69
2022/08/22 11:11:50;;;;;;;4.03;2.60;;;-40.00;63.20;;;;;;5079799;28;20591;-71
2022/08/22 11:14:21;;;;;;;4.97;2.40;;;-40.00;61.40;;;;;;5085867;28;20179;-68
2022/08/22 11:17:05;;;;;;;5.50;2.93;;;-40.00;61.00;;;;;;5083590;28;20491;-69
2022/08/22 11:19:55;;;;;;;8.50;2.67;;;-40.00;59.20;;;;;;5082355;28;20182;-64
2022/08/22 11:22:35;;;;;;;4.43;1.73;;;-40.00;60.70;;;;;;5081651;28;20226;-66
2022/08/22 11:25:34;;;;;;;6.63;2.13;;;-40.00;57.80;;;;;;5089339;28;20472;-65
2022/08/22 11:28:12;;;;;;;6.83;1.70;;;-40.00;57.30;;;;;;5078448;28;20175;-66
2022/08/22 11:30:57;;;;;;;6.93;2.67;;;-40.00;56.90;;;;;;5078027;28;20571;-66
2022/08/22 11:33:47;;;;;;;5.37;2.20;;;-40.00;58.10;;;;;;5078573;28;20183;-65
2022/08/22 11:36:35;;;;;;;3.60;2.67;;;-40.00;57.90;;;;;;5079381;28;20182;-65
2022/08/22 11:39:14;;;;;;;9.73;2.07;;;-40.00;54.90;;;;;;5088606;28;20210;-65
2022/08/22 11:41:53;;;;;;;3.30;1.80;;;-40.00;55.00;;;;;;5078034;28;20186;-65
2022/08/22 11:44:35;;;;;;;4.87;2.70;;;-40.00;54.10;;;;;;5078209;28;20263;-66
2022/08/22 11:47:09;;;;;;;7.43;2.90;;;-40.00;54.80;;;;;;5077702;28;20171;-71
2022/08/22 11:49:58;;;;;;;6.87;2.50;;;-40.00;51.40;;;;;;5078775;28;20199;-69
2022/08/22 11:52:38;;;;;;;4.33;1.80;;;-40.00;53.40;;;;;;5085244;28;20179;-64
2022/08/22 11:55:07;;;;;;;2.90;1.80;;;-40.00;53.40;;;;;;5079152;28;20190;-65
2022/08/22 11:57:35;;;;;;;7.50;1.83;;;-40.00;49.60;;;;;;5078815;28;20249;-65
2022/08/22 12:00:17;;;;;;;6.43;2.47;;;-40.00;50.70;;;;;;5077527;28;20283;-65
2022/08/22 12:03:06;;;;;;;8.70;3.53;;;-40.00;47.50;;;;;;5079127;28;20852;-65
2022/08/22 12:05:40;;;;;;;5.43;2.70;;;-40.00;46.50;;;;;;5079686;28;20186;-66
2022/08/22 12:08:22;;;;;;;4.95;2.85;;;-40.00;46.40;;;;;;5078660;28;20515;-68
2022/08/22 12:11:02;;;;;;;1.90;1.67;;;-40.00;43.70;;;;;;5078878;28;20258;-67
2022/08/22 12:14:00;;;;;;;8.98;2.15;;;-40.00;42.30;;;;;;5077979;28;20224;-65
2022/08/22 12:16:45;;;;;;;4.25;2.45;;;-40.00;40.70;;;;;;5083043;28;20167;-65
2022/08/22 12:19:42;;;;;;;4.82;2.13;;;-40.00;42.30;;;;;;5078644;28;20526;-65
2022/08/22 12:22:39;;;;;;;5.40;2.38;;;-40.00;40.50;;;;;;5078970;28;20211;-67
2022/08/22 12:25:34;;;;;;;3.25;1.98;;;-40.00;40.50;;;;;;5078551;28;20241;-66
2022/08/22 12:28:27;;;;;;;5.00;2.45;;;-40.00;37.70;;;;;;5078164;28;20642;-66
2022/08/22 12:31:04;;;;;;;2.67;1.92;;;-40.00;40.00;;;;;;5078556;28;20222;-66
2022/08/22 12:33:48;;;;;;;3.13;2.08;;;-40.00;36.50;;;;;;5078278;28;20174;-67
2022/08/22 12:36:23;;;;;;;4.68;1.92;;;-40.00;38.30;;;;;;5077847;28;20254;-66
2022/08/22 12:38:57;;;;;;;5.13;3.15;;;-40.00;37.70;;;;;;5081868;28;20214;-67
2022/08/22 12:41:23;;;;;;;5.30;2.33;;;-40.00;34.50;;;;;;5077790;28;20178;-67
2022/08/22 12:44:27;;;;;;;2.75;1.73;;;-40.00;33.80;;;;;;5078840;28;20256;-73
2022/08/22 12:47:09;;;;;;;3.30;2.67;;;-40.00;34.60;;;;;;5074277;28;20284;-72
2022/08/22 12:50:05;;;;;;;4.20;2.17;;;-40.00;37.80;;;;;;5080005;28;20190;-69
2022/08/22 12:52:54;;;;;;;7.05;2.53;;;-40.00;34.70;;;;;;5076773;28;20184;-71
2022/08/22 12:56:07;;;;;;;4.13;2.70;;;-40.00;36.50;;;;;;5075459;28;20228;-70
2022/08/22 12:58:44;;;;;;;3.75;1.88;;;-40.00;34.00;;;;;;5074546;28;20293;-72
2022/08/22 13:01:12;;;;;;;5.82;2.28;;;-40.00;36.70;;;;;;5076693;28;20242;-71
2022/08/22 13:03:49;;;;;;;3.85;1.83;;;-40.00;33.90;;;;;;5085433;28;20199;-68
2022/08/22 13:06:33;;;;;;;2.63;1.58;;;-40.00;31.20;;;;;;5090822;28;20252;-67
2022/08/22 13:09:09;;;;;;;4.75;2.00;;;-40.00;31.30;;;;;;5076789;28;20179;-67
2022/08/22 13:11:37;;;;;;;9.18;1.95;;;-26.50;36.00;;;;;;5088334;28;20794;-67
2022/08/22 13:14:03;;;;;;;4.20;2.05;;;-16.20;41.70;;;;;;5079186;28;20183;-68
2022/08/22 13:16:38;;;;;;;3.63;1.95;;;-12.60;44.00;;;;;;5078050;28;20167;-65
2022/08/22 13:19:16;;;;;;;3.88;2.80;;;-11.80;43.60;;;;;;5076136;28;20166;-68
2022/08/22 13:21:57;;;;;;;2.92;2.20;;;-22.00;39.40;;;;;;5079450;28;20473;-68
2022/08/22 13:24:55;;;;;;;5.22;1.63;;;-25.00;41.90;;;;;;5080800;28;20205;-69
2022/08/22 13:27:24;;;;;;;7.78;3.35;;;-22.80;43.30;;;;;;5079826;28;20174;-67
2022/08/22 13:30:04;;;;;;;6.25;1.83;;;-11.00;45.60;;;;;;5077281;28;20175;-66
2022/08/22 13:32:40;;;;;;;2.85;2.47;;;-9.80;45.50;;;;;;5083975;28;20194;-66
2022/08/22 13:35:19;;;;;;;3.83;2.15;;;-3.90;47.10;;;;;;5077977;28;20181;-65
2022/08/22 13:37:48;;;;;;;2.38;2.17;;;1.70;48.00;;;;;;5076235;28;20575;-66
2022/08/22 13:40:25;;;;;;;3.80;2.17;;;3.10;47.90;;;;;;5083897;28;20175;-66
2022/08/22 13:43:01;;;;;;;5.22;2.30;;;35.70;65.10;;;;;;5076321;28;20323;-67
2022/08/22 13:45:28;;;;;;;4.10;2.22;;;35.90;67.60;;;;;;5076829;28;20232;-64
2022/08/22 13:48:14;;;;;;;4.05;2.30;;;36.00;61.00;;;;;;5076315;28;20262;-66
2022/08/22 13:51:00;;;;;;;3.13;2.00;;;35.70;64.90;;;;;;5086657;28;20187;-66
2022/08/22 13:53:50;;;;;;;2.78;2.58;;;36.30;63.90;;;;;;5076934;28;20183;-66
2022/08/22 13:56:34;;;;;;;4.25;2.35;;;36.30;60.90;;;;;;5076503;28;20166;-67
2022/08/22 13:59:06;;;;;;;5.68;3.25;;;35.80;60.40;;;;;;5076955;28;20202;-65
2022/08/22 14:01:58;;;;;;;6.35;2.45;;;34.70;59.60;;;;;;5080909;28;20210;-68